sensor_id;sensor_type;location;lat;lon;timestamp;pressure;altitude;pressure_sealevel;temperature;humidity
38900;BME280;24660;43.238;26.576;2023-01-01T00:00:20;100838.44;;;0.46;100.00
38900;BME280;24660;43.238;26.576;2023-01-01T00:02:46;100841.97;;;0.45;100.00
38900;BME280;24660;43.238;26.576;2023-01-01T00:05:11;100840.94;;;0.52;100.00
38900;BME280;24660;43.238;26.576;2023-01-01T00:07:36;100835.38;;;0.71;100.00
38900;BME280;24660;43.238;26.576;2023-01-01T00:10:02;100827.91;;;0.46;100.00
38900;BME280;24660;43.238;26.576;2023-01-01T00:12:43;100838.94;;;0.17;100.00
38900;BME280;24660;43.238;26.576;2023-01-01T00:15:08;100847.66;;;0.69;100.00
38900;BME280;24660;43.238;26.576;2023-01-01T00:17:33;100852.50;;;0.45;100.00
38900;BME280;24660;43.238;26.576;2023-01-01T00:19:59;100861.34;;;0.38;100.00
38900;BME280;24660;43.238;26.576;2023-01-01T00:22:24;100855.91;;;0.50;100.00
38900;BME280;24660;43.238;26.576;2023-01-01T00:24:50;100851.00;;;0.29;100.00
38900;BME280;24660;43.238;26.576;2023-01-01T00:27:16;100846.84;;;0.16;100.00
38900;BME280;24660;43.238;26.576;2023-01-01T00:29:41;100840.66;;;0.18;100.00
38900;BME280;24660;43.238;26.576;2023-01-01T00:32:06;100837.28;;;0.09;100.00
38900;BME280;24660;43.238;26.576;2023-01-01T00:34:32;100842.06;;;0.38;100.00
38900;BME280;24660;43.238;26.576;2023-01-01T00:36:57;100843.84;;;0.37;100.00
38900;BME280;24660;43.238;26.576;2023-01-01T00:39:22;100851.81;;;0.33;100.00
38900;BME280;24660;43.238;26.576;2023-01-01T00:41:48;100852.03;;;0.19;100.00
38900;BME280;24660;43.238;26.576;2023-01-01T00:44:13;100845.31;;;0.01;100.00
38900;BME280;24660;43.238;26.576;2023-01-01T00:46:39;100842.47;;;0.15;100.00
38900;BME280;24660;43.238;26.576;2023-01-01T00:49:04;100854.91;;;0.04;100.00
38900;BME280;24660;43.238;26.576;2023-01-01T00:51:29;100854.53;;;0.26;100.00
38900;BME280;24660;43.238;26.576;2023-01-01T00:53:54;100849.41;;;0.19;100.00
38900;BME280;24660;43.238;26.576;2023-01-01T00:56:20;100864.09;;;0.32;100.00
38900;BME280;24660;43.238;26.576;2023-01-01T00:58:45;100853.00;;;0.15;100.00
38900;BME280;24660;43.238;26.576;2023-01-01T01:01:10;100852.09;;;0.16;100.00
38900;BME280;24660;43.238;26.576;2023-01-01T01:03:37;100845.41;;;-0.05;100.00
38900;BME280;24660;43.238;26.576;2023-01-01T01:08:29;100850.78;;;-0.14;100.00
38900;BME280;24660;43.238;26.576;2023-01-01T01:11:00;100853.09;;;0.07;100.00
38900;BME280;24660;43.238;26.576;2023-01-01T01:13:27;100848.53;;;0.20;100.00
38900;BME280;24660;43.238;26.576;2023-01-01T01:15:53;100850.56;;;-0.01;100.00
38900;BME280;24660;43.238;26.576;2023-01-01T01:18:18;100848.00;;;-0.04;100.00
38900;BME280;24660;43.238;26.576;2023-01-01T01:20:48;100838.19;;;0.08;100.00
38900;BME280;24660;43.238;26.576;2023-01-01T01:23:13;100843.34;;;0.14;100.00
38900;BME280;24660;43.238;26.576;2023-01-01T01:25:38;100849.97;;;-0.18;100.00
38900;BME280;24660;43.238;26.576;2023-01-01T01:28:04;100861.16;;;-0.05;100.00
38900;BME280;24660;43.238;26.576;2023-01-01T01:30:29;100856.22;;;0.32;100.00
38900;BME280;24660;43.238;26.576;2023-01-01T01:32:54;100844.78;;;0.35;100.00
38900;BME280;24660;43.238;26.576;2023-01-01T01:35:20;100839.16;;;0.04;100.00
38900;BME280;24660;43.238;26.576;2023-01-01T01:37:45;100852.38;;;-0.04;100.00
38900;BME280;24660;43.238;26.576;2023-01-01T01:40:11;100856.09;;;0.38;100.00
38900;BME280;24660;43.238;26.576;2023-01-01T01:42:44;100859.25;;;0.60;100.00
38900;BME280;24660;43.238;26.576;2023-01-01T01:45:10;100834.38;;;0.28;100.00
38900;BME280;24660;43.238;26.576;2023-01-01T01:50:06;100833.88;;;0.04;100.00
38900;BME280;24660;43.238;26.576;2023-01-01T01:52:33;100838.97;;;0.13;100.00
38900;BME280;24660;43.238;26.576;2023-01-01T01:55:00;100832.88;;;0.11;100.00
38900;BME280;24660;43.238;26.576;2023-01-01T01:57:27;100844.66;;;0.41;100.00
38900;BME280;24660;43.238;26.576;2023-01-01T01:59:53;100844.78;;;0.35;100.00
38900;BME280;24660;43.238;26.576;2023-01-01T02:02:22;100835.59;;;0.06;100.00
38900;BME280;24660;43.238;26.576;2023-01-01T02:04:52;100837.34;;;0.06;100.00
38900;BME280;24660;43.238;26.576;2023-01-01T02:07:18;100833.41;;;-0.23;100.00
38900;BME280;24660;43.238;26.576;2023-01-01T02:09:45;100839.81;;;0.16;100.00
38900;BME280;24660;43.238;26.576;2023-01-01T02:12:10;100828.03;;;-0.15;100.00
38900;BME280;24660;43.238;26.576;2023-01-01T02:14:36;100834.41;;;-0.33;100.00
38900;BME280;24660;43.238;26.576;2023-01-01T02:17:02;100840.69;;;-0.42;100.00
38900;BME280;24660;43.238;26.576;2023-01-01T02:24:45;100837.88;;;0.29;100.00
38900;BME280;24660;43.238;26.576;2023-01-01T02:27:14;100839.75;;;0.19;100.00
38900;BME280;24660;43.238;26.576;2023-01-01T02:29:43;100835.81;;;-0.08;100.00
38900;BME280;24660;43.238;26.576;2023-01-01T02:32:11;100836.41;;;0.10;100.00
38900;BME280;24660;43.238;26.576;2023-01-01T02:34:40;100830.38;;;0.05;100.00
38900;BME280;24660;43.238;26.576;2023-01-01T02:37:07;100829.00;;;-0.21;100.00
38900;BME280;24660;43.238;26.576;2023-01-01T02:39:32;100823.84;;;-0.30;100.00
38900;BME280;24660;43.238;26.576;2023-01-01T02:41:59;100830.09;;;-0.37;100.00
38900;BME280;24660;43.238;26.576;2023-01-01T02:44:27;100822.41;;;0.08;100.00
38900;BME280;24660;43.238;26.576;2023-01-01T02:46:54;100817.59;;;0.34;100.00
38900;BME280;24660;43.238;26.576;2023-01-01T02:49:20;100815.41;;;0.08;100.00
38900;BME280;24660;43.238;26.576;2023-01-01T02:54:47;100797.56;;;-0.27;100.00
38900;BME280;24660;43.238;26.576;2023-01-01T03:10:28;100810.16;;;-0.50;100.00
38900;BME280;24660;43.238;26.576;2023-01-01T03:13:08;100811.66;;;-0.33;100.00
38900;BME280;24660;43.238;26.576;2023-01-01T03:15:39;100806.69;;;-0.52;100.00
38900;BME280;24660;43.238;26.576;2023-01-01T03:18:10;100811.59;;;-0.30;100.00
38900;BME280;24660;43.238;26.576;2023-01-01T03:20:39;100813.22;;;-0.21;100.00
38900;BME280;24660;43.238;26.576;2023-01-01T03:23:08;100805.34;;;-0.21;100.00
38900;BME280;24660;43.238;26.576;2023-01-01T03:25:36;100805.03;;;-0.60;100.00
38900;BME280;24660;43.238;26.576;2023-01-01T03:28:05;100808.31;;;-0.45;100.00
38900;BME280;24660;43.238;26.576;2023-01-01T03:30:34;100815.59;;;-0.04;100.00
38900;BME280;24660;43.238;26.576;2023-01-01T03:33:03;100816.25;;;0.10;100.00
38900;BME280;24660;43.238;26.576;2023-01-01T03:35:38;100813.84;;;-0.05;100.00
38900;BME280;24660;43.238;26.576;2023-01-01T03:38:07;100808.88;;;-0.22;100.00
38900;BME280;24660;43.238;26.576;2023-01-01T03:40:33;100807.22;;;-0.31;100.00
38900;BME280;24660;43.238;26.576;2023-01-01T03:43:02;100815.53;;;0.01;100.00
38900;BME280;24660;43.238;26.576;2023-01-01T03:45:32;100826.94;;;-0.02;100.00
38900;BME280;24660;43.238;26.576;2023-01-01T03:47:59;100826.09;;;-0.04;100.00
38900;BME280;24660;43.238;26.576;2023-01-01T03:50:27;100817.63;;;-0.21;100.00
38900;BME280;24660;43.238;26.576;2023-01-01T03:55:38;100824.53;;;-0.16;100.00
38900;BME280;24660;43.238;26.576;2023-01-01T03:58:10;100827.50;;;-0.39;100.00
38900;BME280;24660;43.238;26.576;2023-01-01T04:00:37;100825.16;;;-0.60;100.00
38900;BME280;24660;43.238;26.576;2023-01-01T04:03:05;100833.28;;;-0.78;100.00
38900;BME280;24660;43.238;26.576;2023-01-01T04:05:34;100833.25;;;-0.75;100.00
38900;BME280;24660;43.238;26.576;2023-01-01T04:08:01;100840.13;;;-0.67;100.00
38900;BME280;24660;43.238;26.576;2023-01-01T04:10:27;100844.59;;;-0.73;100.00
38900;BME280;24660;43.238;26.576;2023-01-01T04:12:54;100842.75;;;-0.65;100.00
38900;BME280;24660;43.238;26.576;2023-01-01T04:15:22;100845.69;;;-0.25;100.00
38900;BME280;24660;43.238;26.576;2023-01-01T04:17:48;100850.28;;;-0.39;100.00
38900;BME280;24660;43.238;26.576;2023-01-01T04:20:14;100849.72;;;-0.63;100.00
38900;BME280;24660;43.238;26.576;2023-01-01T04:22:39;100847.00;;;-0.58;100.00
38900;BME280;24660;43.238;26.576;2023-01-01T04:25:05;100847.00;;;-0.56;100.00
38900;BME280;24660;43.238;26.576;2023-01-01T04:27:31;100858.56;;;-0.73;100.00
38900;BME280;24660;43.238;26.576;2023-01-01T04:29:56;100859.59;;;-0.83;100.00
38900;BME280;24660;43.238;26.576;2023-01-01T04:32:21;100871.59;;;-0.64;100.00
38900;BME280;24660;43.238;26.576;2023-01-01T04:34:47;100874.31;;;-0.68;100.00
38900;BME280;24660;43.238;26.576;2023-01-01T04:37:12;100877.69;;;-0.62;100.00
38900;BME280;24660;43.238;26.576;2023-01-01T04:39:37;100873.38;;;-0.66;100.00
38900;BME280;24660;43.238;26.576;2023-01-01T04:42:03;100873.47;;;-0.75;100.00
38900;BME280;24660;43.238;26.576;2023-01-01T04:44:28;100872.31;;;-0.51;100.00
38900;BME280;24660;43.238;26.576;2023-01-01T04:46:53;100865.84;;;-0.25;100.00
38900;BME280;24660;43.238;26.576;2023-01-01T04:49:19;100870.78;;;-0.67;100.00
38900;BME280;24660;43.238;26.576;2023-01-01T04:51:44;100870.84;;;-0.75;100.00
38900;BME280;24660;43.238;26.576;2023-01-01T04:54:10;100872.31;;;-0.51;100.00
38900;BME280;24660;43.238;26.576;2023-01-01T04:56:35;100871.59;;;-0.64;100.00
38900;BME280;24660;43.238;26.576;2023-01-01T04:59:00;100870.75;;;-0.66;100.00
38900;BME280;24660;43.238;26.576;2023-01-01T05:01:27;100871.66;;;-0.67;100.00
38900;BME280;24660;43.238;26.576;2023-01-01T05:03:53;100874.53;;;-0.90;100.00
38900;BME280;24660;43.238;26.576;2023-01-01T05:06:19;100880.38;;;-0.65;100.00
38900;BME280;24660;43.238;26.576;2023-01-01T05:08:45;100878.69;;;-0.69;100.00
38900;BME280;24660;43.238;26.576;2023-01-01T05:11:19;100874.31;;;-0.71;100.00
38900;BME280;24660;43.238;26.576;2023-01-01T05:13:46;100885.47;;;-0.52;100.00
38900;BME280;24660;43.238;26.576;2023-01-01T05:16:13;100867.81;;;-0.41;100.00
38900;BME280;24660;43.238;26.576;2023-01-01T05:18:38;100868.09;;;-0.64;100.00
38900;BME280;24660;43.238;26.576;2023-01-01T05:21:04;100864.31;;;-0.43;100.00
38900;BME280;24660;43.238;26.576;2023-01-01T05:23:31;100862.09;;;-0.08;100.00
38900;BME280;24660;43.238;26.576;2023-01-01T05:25:56;100859.47;;;-0.09;100.00
38900;BME280;24660;43.238;26.576;2023-01-01T05:28:22;100849.09;;;-0.18;100.00
38900;BME280;24660;43.238;26.576;2023-01-01T05:30:48;100854.88;;;-0.58;100.00
38900;BME280;24660;43.238;26.576;2023-01-01T05:33:13;100851.38;;;-0.57;100.00
38900;BME280;24660;43.238;26.576;2023-01-01T05:35:39;100859.28;;;-0.58;100.00
38900;BME280;24660;43.238;26.576;2023-01-01T05:38:04;100855.06;;;-0.69;100.00
38900;BME280;24660;43.238;26.576;2023-01-01T05:40:29;100857.47;;;-0.52;100.00
38900;BME280;24660;43.238;26.576;2023-01-01T05:42:55;100857.97;;;-0.25;100.00
38900;BME280;24660;43.238;26.576;2023-01-01T05:45:20;100873.97;;;-0.42;100.00
38900;BME280;24660;43.238;26.576;2023-01-01T05:47:46;100869.69;;;-0.51;100.00
38900;BME280;24660;43.238;26.576;2023-01-01T05:50:11;100868.78;;;-0.48;100.00
38900;BME280;24660;43.238;26.576;2023-01-01T05:52:36;100866.97;;;-0.42;100.00
38900;BME280;24660;43.238;26.576;2023-01-01T05:55:02;100852.84;;;-0.36;100.00
38900;BME280;24660;43.238;26.576;2023-01-01T05:57:27;100856.59;;;-0.52;100.00
38900;BME280;24660;43.238;26.576;2023-01-01T05:59:53;100852.34;;;-0.64;100.00
38900;BME280;24660;43.238;26.576;2023-01-01T06:02:18;100853.91;;;-0.49;100.00
38900;BME280;24660;43.238;26.576;2023-01-01T06:04:44;100861.47;;;-0.25;100.00
38900;BME280;24660;43.238;26.576;2023-01-01T06:07:09;100857.59;;;0.01;100.00
38900;BME280;24660;43.238;26.576;2023-01-01T06:09:34;100861.53;;;-0.28;100.00
38900;BME280;24660;43.238;26.576;2023-01-01T06:12:00;100855.50;;;-0.36;100.00
38900;BME280;24660;43.238;26.576;2023-01-01T06:14:25;100860.66;;;-0.30;100.00
38900;BME280;24660;43.238;26.576;2023-01-01T06:16:50;100854.81;;;-0.52;100.00
38900;BME280;24660;43.238;26.576;2023-01-01T06:19:16;100861.66;;;-0.39;100.00
38900;BME280;24660;43.238;26.576;2023-01-01T06:21:41;100860.66;;;-0.32;100.00
38900;BME280;24660;43.238;26.576;2023-01-01T06:24:06;100860.91;;;0.12;100.00
38900;BME280;24660;43.238;26.576;2023-01-01T06:26:32;100865.28;;;0.14;100.00
38900;BME280;24660;43.238;26.576;2023-01-01T06:28:58;100875.16;;;-0.03;100.00
38900;BME280;24660;43.238;26.576;2023-01-01T06:31:24;100863.22;;;-0.25;100.00
38900;BME280;24660;43.238;26.576;2023-01-01T06:33:50;100869.31;;;-0.22;100.00
38900;BME280;24660;43.238;26.576;2023-01-01T06:36:16;100876.16;;;-0.10;100.00
38900;BME280;24660;43.238;26.576;2023-01-01T06:38:43;100882.47;;;0.34;100.00
38900;BME280;24660;43.238;26.576;2023-01-01T06:41:10;100880.53;;;0.46;100.00
38900;BME280;24660;43.238;26.576;2023-01-01T06:43:36;100878.28;;;0.22;100.00
38900;BME280;24660;43.238;26.576;2023-01-01T06:46:03;100885.19;;;0.27;100.00
38900;BME280;24660;43.238;26.576;2023-01-01T06:48:29;100885.97;;;0.34;100.00
38900;BME280;24660;43.238;26.576;2023-01-01T06:50:55;100888.09;;;0.11;100.00
38900;BME280;24660;43.238;26.576;2023-01-01T06:53:23;100885.25;;;0.24;100.00
38900;BME280;24660;43.238;26.576;2023-01-01T06:55:48;100895.50;;;0.41;100.00
38900;BME280;24660;43.238;26.576;2023-01-01T06:58:14;100896.72;;;0.74;100.00
38900;BME280;24660;43.238;26.576;2023-01-01T07:00:39;100904.19;;;0.97;100.00
38900;BME280;24660;43.238;26.576;2023-01-01T07:03:04;100907.97;;;1.30;100.00
38900;BME280;24660;43.238;26.576;2023-01-01T07:05:30;100898.91;;;1.43;100.00
38900;BME280;24660;43.238;26.576;2023-01-01T07:07:55;100898.09;;;1.83;100.00
38900;BME280;24660;43.238;26.576;2023-01-01T07:10:20;100894.38;;;1.90;100.00
38900;BME280;24660;43.238;26.576;2023-01-01T07:12:45;100894.16;;;2.74;100.00
38900;BME280;24660;43.238;26.576;2023-01-01T07:15:11;100899.59;;;3.64;100.00
38900;BME280;24660;43.238;26.576;2023-01-01T07:17:36;100881.09;;;3.64;100.00
38900;BME280;24660;43.238;26.576;2023-01-01T07:20:01;100866.53;;;3.78;100.00
38900;BME280;24660;43.238;26.576;2023-01-01T07:22:27;100863.09;;;4.04;100.00
38900;BME280;24660;43.238;26.576;2023-01-01T07:24:52;100863.69;;;4.92;100.00
38900;BME280;24660;43.238;26.576;2023-01-01T07:27:17;100852.44;;;5.82;100.00
38900;BME280;24660;43.238;26.576;2023-01-01T07:29:43;100858.16;;;5.94;100.00
38900;BME280;24660;43.238;26.576;2023-01-01T07:32:11;100848.00;;;5.59;100.00
38900;BME280;24660;43.238;26.576;2023-01-01T07:34:37;100848.09;;;5.09;100.00
38900;BME280;24660;43.238;26.576;2023-01-01T07:37:02;100855.13;;;5.10;100.00
38900;BME280;24660;43.238;26.576;2023-01-01T07:39:27;100850.03;;;5.04;100.00
38900;BME280;24660;43.238;26.576;2023-01-01T07:41:53;100850.31;;;5.21;100.00
38900;BME280;24660;43.238;26.576;2023-01-01T07:44:18;100858.63;;;5.35;100.00
38900;BME280;24660;43.238;26.576;2023-01-01T07:46:43;100857.06;;;5.53;100.00
38900;BME280;24660;43.238;26.576;2023-01-01T07:49:08;100860.50;;;5.32;100.00
38900;BME280;24660;43.238;26.576;2023-01-01T07:51:34;100863.91;;;5.59;100.00
38900;BME280;24660;43.238;26.576;2023-01-01T07:53:59;100860.28;;;5.61;100.00
38900;BME280;24660;43.238;26.576;2023-01-01T07:56:24;100867.81;;;5.49;100.00
38900;BME280;24660;43.238;26.576;2023-01-01T07:58:50;100865.69;;;5.58;100.00
38900;BME280;24660;43.238;26.576;2023-01-01T08:01:15;100875.13;;;5.67;100.00
38900;BME280;24660;43.238;26.576;2023-01-01T08:03:41;100871.50;;;5.93;100.00
38900;BME280;24660;43.238;26.576;2023-01-01T08:06:07;100873.28;;;6.14;100.00
38900;BME280;24660;43.238;26.576;2023-01-01T08:08:32;100877.56;;;6.40;100.00
38900;BME280;24660;43.238;26.576;2023-01-01T08:10:59;100877.84;;;6.54;100.00
38900;BME280;24660;43.238;26.576;2023-01-01T08:13:25;100881.16;;;6.60;100.00
38900;BME280;24660;43.238;26.576;2023-01-01T08:15:50;100878.13;;;6.91;100.00
38900;BME280;24660;43.238;26.576;2023-01-01T08:18:15;100889.56;;;7.32;100.00
38900;BME280;24660;43.238;26.576;2023-01-01T08:20:41;100888.16;;;7.04;100.00
38900;BME280;24660;43.238;26.576;2023-01-01T08:23:06;100885.00;;;7.35;100.00
38900;BME280;24660;43.238;26.576;2023-01-01T08:25:31;100888.00;;;7.67;100.00
38900;BME280;24660;43.238;26.576;2023-01-01T08:27:56;100884.13;;;7.93;100.00
38900;BME280;24660;43.238;26.576;2023-01-01T08:30:22;100886.44;;;8.19;100.00
38900;BME280;24660;43.238;26.576;2023-01-01T08:32:47;100885.13;;;8.09;100.00
38900;BME280;24660;43.238;26.576;2023-01-01T08:35:13;100880.78;;;8.25;100.00
38900;BME280;24660;43.238;26.576;2023-01-01T08:37:38;100871.59;;;7.95;100.00
38900;BME280;24660;43.238;26.576;2023-01-01T08:40:03;100880.13;;;8.03;100.00
38900;BME280;24660;43.238;26.576;2023-01-01T08:42:29;100879.16;;;8.04;100.00
38900;BME280;24660;43.238;26.576;2023-01-01T08:44:54;100877.34;;;8.23;100.00
38900;BME280;24660;43.238;26.576;2023-01-01T08:47:21;100884.28;;;8.81;100.00
38900;BME280;24660;43.238;26.576;2023-01-01T08:49:46;100879.03;;;9.14;100.00
38900;BME280;24660;43.238;26.576;2023-01-01T08:52:12;100870.84;;;9.34;100.00
38900;BME280;24660;43.238;26.576;2023-01-01T08:54:38;100870.56;;;9.06;100.00
38900;BME280;24660;43.238;26.576;2023-01-01T08:57:03;100862.66;;;9.37;100.00
38900;BME280;24660;43.238;26.576;2023-01-01T08:59:29;100863.34;;;9.08;100.00
38900;BME280;24660;43.238;26.576;2023-01-01T09:01:54;100857.28;;;9.55;100.00
38900;BME280;24660;43.238;26.576;2023-01-01T09:04:19;100855.75;;;9.50;100.00
38900;BME280;24660;43.238;26.576;2023-01-01T09:06:45;100854.47;;;9.58;100.00
38900;BME280;24660;43.238;26.576;2023-01-01T09:09:10;100847.81;;;9.49;100.00
38900;BME280;24660;43.238;26.576;2023-01-01T09:11:35;100845.91;;;10.00;100.00
38900;BME280;24660;43.238;26.576;2023-01-01T09:14:01;100846.13;;;10.11;100.00
38900;BME280;24660;43.238;26.576;2023-01-01T09:16:26;100841.94;;;10.07;100.00
38900;BME280;24660;43.238;26.576;2023-01-01T09:18:51;100849.41;;;10.48;100.00
38900;BME280;24660;43.238;26.576;2023-01-01T09:21:16;100841.78;;;10.72;100.00
38900;BME280;24660;43.238;26.576;2023-01-01T09:23:42;100839.34;;;10.67;100.00
38900;BME280;24660;43.238;26.576;2023-01-01T09:26:08;100837.78;;;10.79;100.00
38900;BME280;24660;43.238;26.576;2023-01-01T09:28:34;100844.13;;;10.92;100.00
38900;BME280;24660;43.238;26.576;2023-01-01T09:30:59;100841.38;;;11.08;100.00
38900;BME280;24660;43.238;26.576;2023-01-01T09:33:26;100837.50;;;11.42;100.00
38900;BME280;24660;43.238;26.576;2023-01-01T09:35:51;100833.38;;;11.79;100.00
38900;BME280;24660;43.238;26.576;2023-01-01T09:38:16;100830.59;;;11.95;100.00
38900;BME280;24660;43.238;26.576;2023-01-01T09:45:54;100830.28;;;12.13;100.00
38900;BME280;24660;43.238;26.576;2023-01-01T09:48:20;100826.75;;;12.40;100.00
38900;BME280;24660;43.238;26.576;2023-01-01T09:50:45;100826.84;;;12.51;100.00
38900;BME280;24660;43.238;26.576;2023-01-01T09:55:39;100838.72;;;12.74;100.00
38900;BME280;24660;43.238;26.576;2023-01-01T09:58:07;100829.19;;;12.70;100.00
38900;BME280;24660;43.238;26.576;2023-01-01T10:00:34;100832.00;;;12.81;100.00
38900;BME280;24660;43.238;26.576;2023-01-01T10:03:02;100834.19;;;13.14;100.00
38900;BME280;24660;43.238;26.576;2023-01-01T10:07:59;100824.91;;;12.93;100.00
38900;BME280;24660;43.238;26.576;2023-01-01T10:18:30;100801.84;;;13.66;100.00
38900;BME280;24660;43.238;26.576;2023-01-01T10:23:42;100802.31;;;13.97;100.00
38900;BME280;24660;43.238;26.576;2023-01-01T10:26:12;100795.94;;;13.98;100.00
38900;BME280;24660;43.238;26.576;2023-01-01T10:28:42;100801.25;;;14.23;100.00
38900;BME280;24660;43.238;26.576;2023-01-01T10:33:51;100783.50;;;13.97;100.00
38900;BME280;24660;43.238;26.576;2023-01-01T10:36:17;100791.66;;;14.43;100.00
38900;BME280;24660;43.238;26.576;2023-01-01T10:38:44;100789.44;;;14.61;100.00
38900;BME280;24660;43.238;26.576;2023-01-01T10:41:09;100790.09;;;14.65;100.00
38900;BME280;24660;43.238;26.576;2023-01-01T10:43:35;100789.16;;;14.88;100.00
38900;BME280;24660;43.238;26.576;2023-01-01T10:46:01;100785.16;;;14.94;100.00
38900;BME280;24660;43.238;26.576;2023-01-01T10:48:27;100785.38;;;15.02;100.00
38900;BME280;24660;43.238;26.576;2023-01-01T10:50:55;100781.75;;;15.25;100.00
38900;BME280;24660;43.238;26.576;2023-01-01T10:53:28;100777.34;;;15.35;100.00
38900;BME280;24660;43.238;26.576;2023-01-01T10:55:58;100768.94;;;15.62;100.00
38900;BME280;24660;43.238;26.576;2023-01-01T11:01:06;100772.31;;;15.87;100.00
38900;BME280;24660;43.238;26.576;2023-01-01T11:03:31;100775.59;;;16.01;100.00
38900;BME280;24660;43.238;26.576;2023-01-01T11:06:09;100766.63;;;16.12;99.54
38900;BME280;24660;43.238;26.576;2023-01-01T11:08:38;100760.75;;;16.07;96.36
38900;BME280;24660;43.238;26.576;2023-01-01T11:11:05;100763.91;;;16.12;96.09
38900;BME280;24660;43.238;26.576;2023-01-01T11:13:30;100770.81;;;16.37;96.65
38900;BME280;24660;43.238;26.576;2023-01-01T11:15:57;100776.22;;;16.37;100.00
38900;BME280;24660;43.238;26.576;2023-01-01T11:18:27;100764.59;;;16.25;99.89
38900;BME280;24660;43.238;26.576;2023-01-01T11:20:59;100762.34;;;16.42;99.27
38900;BME280;24660;43.238;26.576;2023-01-01T11:23:27;100762.50;;;16.61;97.36
38900;BME280;24660;43.238;26.576;2023-01-01T11:25:56;100762.16;;;16.54;95.31
38900;BME280;24660;43.238;26.576;2023-01-01T11:28:22;100756.56;;;16.03;99.28
38900;BME280;24660;43.238;26.576;2023-01-01T11:33:29;100763.41;;;16.50;91.46
38900;BME280;24660;43.238;26.576;2023-01-01T11:35:56;100750.72;;;16.30;90.91
38900;BME280;24660;43.238;26.576;2023-01-01T11:38:22;100743.66;;;16.50;92.01
38900;BME280;24660;43.238;26.576;2023-01-01T11:40:50;100748.81;;;16.21;90.83
38900;BME280;24660;43.238;26.576;2023-01-01T11:43:19;100748.84;;;16.10;93.33
38900;BME280;24660;43.238;26.576;2023-01-01T11:45:45;100745.88;;;16.45;91.98
38900;BME280;24660;43.238;26.576;2023-01-01T11:48:12;100748.66;;;16.33;90.89
38900;BME280;24660;43.238;26.576;2023-01-01T11:50:40;100741.41;;;16.55;92.54
38900;BME280;24660;43.238;26.576;2023-01-01T11:56:05;100738.78;;;16.65;92.69
38900;BME280;24660;43.238;26.576;2023-01-01T11:58:37;100737.66;;;16.14;95.78
38900;BME280;24660;43.238;26.576;2023-01-01T12:01:12;100737.03;;;16.22;98.58
38900;BME280;24660;43.238;26.576;2023-01-01T12:03:43;100732.88;;;16.50;96.25
38900;BME280;24660;43.238;26.576;2023-01-01T12:08:58;100737.56;;;16.69;89.87
38900;BME280;24660;43.238;26.576;2023-01-01T12:11:35;100730.69;;;16.65;87.93
38900;BME280;24660;43.238;26.576;2023-01-01T12:19:10;100716.25;;;16.54;81.78
38900;BME280;24660;43.238;26.576;2023-01-01T12:21:39;100722.34;;;16.68;81.29
38900;BME280;24660;43.238;26.576;2023-01-01T12:24:08;100726.28;;;16.63;79.77
38900;BME280;24660;43.238;26.576;2023-01-01T12:26:48;100716.19;;;16.77;79.49
38900;BME280;24660;43.238;26.576;2023-01-01T12:29:23;100717.19;;;16.44;78.52
38900;BME280;24660;43.238;26.576;2023-01-01T12:32:00;100714.88;;;16.60;79.59
38900;BME280;24660;43.238;26.576;2023-01-01T12:37:18;100714.59;;;16.42;79.23
38900;BME280;24660;43.238;26.576;2023-01-01T12:42:23;100711.59;;;16.56;80.75
38900;BME280;24660;43.238;26.576;2023-01-01T12:52:41;100704.63;;;16.75;78.05
38900;BME280;24660;43.238;26.576;2023-01-01T12:57:55;100710.72;;;16.56;79.53
38900;BME280;24660;43.238;26.576;2023-01-01T13:00:23;100704.94;;;16.60;78.92
38900;BME280;24660;43.238;26.576;2023-01-01T13:02:53;100702.13;;;16.62;78.54
38900;BME280;24660;43.238;26.576;2023-01-01T13:05:23;100713.16;;;16.59;79.11
38900;BME280;24660;43.238;26.576;2023-01-01T13:07:51;100711.28;;;16.50;80.09
38900;BME280;24660;43.238;26.576;2023-01-01T13:10:22;100710.66;;;16.46;79.45
38900;BME280;24660;43.238;26.576;2023-01-01T13:12:48;100711.59;;;16.36;79.46
38900;BME280;24660;43.238;26.576;2023-01-01T13:17:54;100711.38;;;16.27;79.72
38900;BME280;24660;43.238;26.576;2023-01-01T13:20:21;100715.66;;;16.30;81.62
38900;BME280;24660;43.238;26.576;2023-01-01T13:22:47;100712.88;;;16.20;81.88
38900;BME280;24660;43.238;26.576;2023-01-01T13:35:42;100708.56;;;15.97;83.88
38900;BME280;24660;43.238;26.576;2023-01-01T13:40:49;100706.88;;;15.85;85.27
38900;BME280;24660;43.238;26.576;2023-01-01T13:43:16;100714.56;;;15.89;86.07
38900;BME280;24660;43.238;26.576;2023-01-01T13:45:42;100713.78;;;15.66;87.46
38900;BME280;24660;43.238;26.576;2023-01-01T13:48:20;100709.97;;;15.47;90.58
38900;BME280;24660;43.238;26.576;2023-01-01T13:53:22;100711.34;;;15.30;96.39
38900;BME280;24660;43.238;26.576;2023-01-01T13:58:36;100720.03;;;15.11;98.41
38900;BME280;24660;43.238;26.576;2023-01-01T14:01:18;100717.34;;;15.11;97.33
38900;BME280;24660;43.238;26.576;2023-01-01T14:03:48;100722.97;;;14.97;99.86
38900;BME280;24660;43.238;26.576;2023-01-01T14:06:18;100728.06;;;14.77;100.00
38900;BME280;24660;43.238;26.576;2023-01-01T14:08:47;100721.19;;;14.62;100.00
38900;BME280;24660;43.238;26.576;2023-01-01T14:11:24;100720.50;;;14.36;100.00
38900;BME280;24660;43.238;26.576;2023-01-01T14:13:50;100716.03;;;14.00;100.00
38900;BME280;24660;43.238;26.576;2023-01-01T14:16:15;100711.34;;;13.91;100.00
38900;BME280;24660;43.238;26.576;2023-01-01T14:18:42;100707.03;;;13.64;100.00